Main page
METAR-TAF:

METAR-TAF

Airports :

Chengdu, China

Chengdu Shuangliu International Airport

latitude: 30-40N, longitude: 104-01E, elevation: 508 m

Current weather observation

The report was made 1 hour and 1 minutes ago, at 14:00 UTC
Wind 10 kt from the North/Northeast
Temperature 16°C
Humidity 82%
Pressure 1016 hPa
Visibility: 5000 m
Scattered clouds at a height of 3300 ft
mist

METAR: ZUUU 291400Z 03005MPS 5000 BR SCT033 16/13 Q1016 NOSIG

Time: 23:01 (15:01 UTC)

Forecast

The report was made 6 hours and 53 minutes ago, at 08:08 UTC
Forecast valid from 29 at 12 UTC to 30 at 12 UTC
Wind 6 kt from the South/Southwest
Visibility: 3500 m
Scattered clouds at a height of 5000 ft
mist
Temporary
from 29 at 19 UTC to 29 at 21 UTC
Few clouds at a height of 3000 ft, Cumulonimbus.
Scattered clouds at a height of 3000 ft
thunderstorm, light rain

TAF: ZUUU 290808Z 2912/3012 20003MPS 3500 BR SCT050 TX19/3007Z TN13/2923Z TEMPO 2919/2921 -TSRA FEW030CB SCT030

Weather observations and forecasts of more than 4000 airports (METAR and TAF reports).

The available stations are represented by yellow and red dots on the map.

Hover mouse over dot to see the name of the station.

Then click to see weather observations and forecasts.

To change the map : click on the green buttons with a black cross to zoom in, on the green button with a dash to zoom out, or on the green arrows for adjacent maps.


METAR-TAF: